sensor_id;sensor_type;location;lat;lon;timestamp;P1;durP1;ratioP1;P2;durP2;ratioP2
2940;SDS011;1480;51.456;6.670;2023-03-31T00:01:49;6.97;;;2.70;;
2940;SDS011;1480;51.456;6.670;2023-03-31T00:04:18;9.57;;;2.37;;
2940;SDS011;1480;51.456;6.670;2023-03-31T00:06:48;14.50;;;3.40;;
2940;SDS011;1480;51.456;6.670;2023-03-31T00:09:18;5.60;;;1.97;;
2940;SDS011;1480;51.456;6.670;2023-03-31T00:11:46;4.30;;;1.83;;
2940;SDS011;1480;51.456;6.670;2023-03-31T00:14:13;5.00;;;2.53;;
2940;SDS011;1480;51.456;6.670;2023-03-31T00:16:42;5.50;;;2.60;;
2940;SDS011;1480;51.456;6.670;2023-03-31T00:19:09;5.53;;;2.30;;
2940;SDS011;1480;51.456;6.670;2023-03-31T00:21:43;7.43;;;1.97;;
2940;SDS011;1480;51.456;6.670;2023-03-31T00:24:11;4.17;;;1.87;;
2940;SDS011;1480;51.456;6.670;2023-03-31T00:26:38;4.03;;;1.63;;
2940;SDS011;1480;51.456;6.670;2023-03-31T00:29:06;5.77;;;2.07;;
2940;SDS011;1480;51.456;6.670;2023-03-31T00:31:33;6.70;;;1.80;;
2940;SDS011;1480;51.456;6.670;2023-03-31T00:34:00;6.40;;;2.00;;
2940;SDS011;1480;51.456;6.670;2023-03-31T00:36:27;4.33;;;1.90;;
2940;SDS011;1480;51.456;6.670;2023-03-31T00:38:55;5.30;;;1.70;;
2940;SDS011;1480;51.456;6.670;2023-03-31T00:41:25;7.57;;;1.77;;
2940;SDS011;1480;51.456;6.670;2023-03-31T00:43:59;5.97;;;1.97;;
2940;SDS011;1480;51.456;6.670;2023-03-31T00:46:29;5.23;;;2.10;;
2940;SDS011;1480;51.456;6.670;2023-03-31T00:48:56;3.77;;;1.90;;
2940;SDS011;1480;51.456;6.670;2023-03-31T00:51:23;4.53;;;1.70;;
2940;SDS011;1480;51.456;6.670;2023-03-31T00:53:53;5.40;;;2.10;;
2940;SDS011;1480;51.456;6.670;2023-03-31T00:56:25;3.23;;;2.10;;
2940;SDS011;1480;51.456;6.670;2023-03-31T00:58:52;8.73;;;2.13;;
2940;SDS011;1480;51.456;6.670;2023-03-31T01:01:22;8.23;;;2.00;;
2940;SDS011;1480;51.456;6.670;2023-03-31T01:03:50;5.67;;;2.30;;
2940;SDS011;1480;51.456;6.670;2023-03-31T01:06:17;9.23;;;2.70;;
2940;SDS011;1480;51.456;6.670;2023-03-31T01:08:44;7.90;;;2.70;;
2940;SDS011;1480;51.456;6.670;2023-03-31T01:11:14;8.40;;;2.30;;
2940;SDS011;1480;51.456;6.670;2023-03-31T01:13:42;11.57;;;3.10;;
2940;SDS011;1480;51.456;6.670;2023-03-31T01:16:10;5.67;;;2.47;;
2940;SDS011;1480;51.456;6.670;2023-03-31T01:18:37;6.87;;;2.80;;
2940;SDS011;1480;51.456;6.670;2023-03-31T01:24:00;12.00;;;3.20;;
2940;SDS011;1480;51.456;6.670;2023-03-31T01:26:43;6.83;;;3.13;;
2940;SDS011;1480;51.456;6.670;2023-03-31T01:29:23;6.90;;;3.53;;
2940;SDS011;1480;51.456;6.670;2023-03-31T01:32:02;10.67;;;4.90;;
2940;SDS011;1480;51.456;6.670;2023-03-31T01:40:42;8.07;;;3.30;;
2940;SDS011;1480;51.456;6.670;2023-03-31T01:43:25;9.07;;;2.60;;
2940;SDS011;1480;51.456;6.670;2023-03-31T01:45:56;7.63;;;2.07;;
2940;SDS011;1480;51.456;6.670;2023-03-31T01:48:30;7.47;;;3.07;;
2940;SDS011;1480;51.456;6.670;2023-03-31T01:51:01;4.60;;;2.10;;
2940;SDS011;1480;51.456;6.670;2023-03-31T01:53:30;11.03;;;2.70;;
2940;SDS011;1480;51.456;6.670;2023-03-31T01:56:01;6.23;;;2.57;;
2940;SDS011;1480;51.456;6.670;2023-03-31T01:58:31;6.57;;;2.73;;
2940;SDS011;1480;51.456;6.670;2023-03-31T02:01:03;5.67;;;2.60;;
2940;SDS011;1480;51.456;6.670;2023-03-31T02:03:34;7.10;;;2.97;;
2940;SDS011;1480;51.456;6.670;2023-03-31T02:06:04;5.33;;;2.60;;
2940;SDS011;1480;51.456;6.670;2023-03-31T02:08:36;7.90;;;2.73;;
2940;SDS011;1480;51.456;6.670;2023-03-31T02:11:05;9.30;;;2.83;;
2940;SDS011;1480;51.456;6.670;2023-03-31T02:13:32;8.13;;;2.97;;
2940;SDS011;1480;51.456;6.670;2023-03-31T02:16:03;8.40;;;3.60;;
2940;SDS011;1480;51.456;6.670;2023-03-31T02:18:34;9.10;;;3.60;;
2940;SDS011;1480;51.456;6.670;2023-03-31T02:21:02;9.10;;;4.30;;
2940;SDS011;1480;51.456;6.670;2023-03-31T02:23:31;13.63;;;4.77;;
2940;SDS011;1480;51.456;6.670;2023-03-31T02:25:59;12.13;;;3.87;;
2940;SDS011;1480;51.456;6.670;2023-03-31T02:28:28;10.47;;;4.37;;
2940;SDS011;1480;51.456;6.670;2023-03-31T02:31:01;9.87;;;4.10;;
2940;SDS011;1480;51.456;6.670;2023-03-31T02:33:32;10.77;;;4.50;;
2940;SDS011;1480;51.456;6.670;2023-03-31T02:35:59;8.70;;;4.30;;
2940;SDS011;1480;51.456;6.670;2023-03-31T02:38:26;13.90;;;3.90;;
2940;SDS011;1480;51.456;6.670;2023-03-31T02:40:53;12.13;;;4.50;;
2940;SDS011;1480;51.456;6.670;2023-03-31T02:43:19;13.23;;;3.80;;
2940;SDS011;1480;51.456;6.670;2023-03-31T02:45:48;14.60;;;3.77;;
2940;SDS011;1480;51.456;6.670;2023-03-31T02:48:17;14.23;;;3.93;;
2940;SDS011;1480;51.456;6.670;2023-03-31T02:51:07;17.00;;;4.50;;
2940;SDS011;1480;51.456;6.670;2023-03-31T02:53:47;19.23;;;4.47;;
2940;SDS011;1480;51.456;6.670;2023-03-31T02:56:34;6.53;;;3.33;;
2940;SDS011;1480;51.456;6.670;2023-03-31T02:59:14;13.00;;;4.00;;
2940;SDS011;1480;51.456;6.670;2023-03-31T03:01:54;8.63;;;4.80;;
2940;SDS011;1480;51.456;6.670;2023-03-31T03:04:35;15.20;;;5.20;;
2940;SDS011;1480;51.456;6.670;2023-03-31T03:07:07;13.23;;;3.73;;
2940;SDS011;1480;51.456;6.670;2023-03-31T03:09:42;12.90;;;3.90;;
2940;SDS011;1480;51.456;6.670;2023-03-31T03:12:15;11.83;;;3.87;;
2940;SDS011;1480;51.456;6.670;2023-03-31T03:14:44;12.13;;;3.90;;
2940;SDS011;1480;51.456;6.670;2023-03-31T03:17:15;15.27;;;3.20;;
2940;SDS011;1480;51.456;6.670;2023-03-31T03:19:49;11.57;;;4.40;;
2940;SDS011;1480;51.456;6.670;2023-03-31T03:22:16;12.60;;;2.97;;
2940;SDS011;1480;51.456;6.670;2023-03-31T03:24:43;14.83;;;3.93;;
2940;SDS011;1480;51.456;6.670;2023-03-31T03:27:10;9.97;;;3.43;;
2940;SDS011;1480;51.456;6.670;2023-03-31T03:29:36;17.63;;;5.17;;
2940;SDS011;1480;51.456;6.670;2023-03-31T03:32:03;11.50;;;3.40;;
2940;SDS011;1480;51.456;6.670;2023-03-31T03:34:31;17.77;;;4.60;;
2940;SDS011;1480;51.456;6.670;2023-03-31T03:36:58;9.50;;;4.20;;
2940;SDS011;1480;51.456;6.670;2023-03-31T03:39:25;14.33;;;3.73;;
2940;SDS011;1480;51.456;6.670;2023-03-31T03:41:51;10.47;;;3.37;;
2940;SDS011;1480;51.456;6.670;2023-03-31T03:44:18;12.30;;;4.73;;
2940;SDS011;1480;51.456;6.670;2023-03-31T03:46:45;19.93;;;3.70;;
2940;SDS011;1480;51.456;6.670;2023-03-31T03:49:12;14.90;;;4.50;;
2940;SDS011;1480;51.456;6.670;2023-03-31T03:51:40;18.00;;;4.73;;
2940;SDS011;1480;51.456;6.670;2023-03-31T03:54:07;13.00;;;4.77;;
2940;SDS011;1480;51.456;6.670;2023-03-31T03:56:33;11.77;;;4.70;;
2940;SDS011;1480;51.456;6.670;2023-03-31T03:59:00;18.23;;;6.17;;
2940;SDS011;1480;51.456;6.670;2023-03-31T04:01:26;14.43;;;5.33;;
2940;SDS011;1480;51.456;6.670;2023-03-31T04:03:53;18.27;;;5.70;;
2940;SDS011;1480;51.456;6.670;2023-03-31T04:06:20;11.10;;;5.00;;
2940;SDS011;1480;51.456;6.670;2023-03-31T04:08:48;11.37;;;4.77;;
2940;SDS011;1480;51.456;6.670;2023-03-31T04:11:15;13.13;;;4.77;;
2940;SDS011;1480;51.456;6.670;2023-03-31T04:13:43;13.37;;;4.87;;
2940;SDS011;1480;51.456;6.670;2023-03-31T04:16:10;7.57;;;3.93;;
2940;SDS011;1480;51.456;6.670;2023-03-31T04:18:37;14.80;;;4.53;;
2940;SDS011;1480;51.456;6.670;2023-03-31T04:21:07;15.77;;;4.27;;
2940;SDS011;1480;51.456;6.670;2023-03-31T04:23:36;15.83;;;4.97;;
2940;SDS011;1480;51.456;6.670;2023-03-31T04:26:12;23.27;;;6.40;;
2940;SDS011;1480;51.456;6.670;2023-03-31T04:28:39;18.93;;;5.20;;
2940;SDS011;1480;51.456;6.670;2023-03-31T04:31:08;18.60;;;6.23;;
2940;SDS011;1480;51.456;6.670;2023-03-31T04:33:40;14.37;;;5.60;;
2940;SDS011;1480;51.456;6.670;2023-03-31T04:36:10;15.93;;;5.67;;
2940;SDS011;1480;51.456;6.670;2023-03-31T04:38:41;19.47;;;4.20;;
2940;SDS011;1480;51.456;6.670;2023-03-31T04:41:12;10.43;;;4.43;;
2940;SDS011;1480;51.456;6.670;2023-03-31T04:43:39;12.30;;;4.90;;
2940;SDS011;1480;51.456;6.670;2023-03-31T04:46:06;15.37;;;4.53;;
2940;SDS011;1480;51.456;6.670;2023-03-31T04:48:33;15.70;;;4.10;;
2940;SDS011;1480;51.456;6.670;2023-03-31T04:51:00;21.07;;;4.80;;
2940;SDS011;1480;51.456;6.670;2023-03-31T04:53:27;8.43;;;3.80;;
2940;SDS011;1480;51.456;6.670;2023-03-31T04:55:54;14.20;;;3.87;;
2940;SDS011;1480;51.456;6.670;2023-03-31T04:58:22;10.63;;;3.27;;
2940;SDS011;1480;51.456;6.670;2023-03-31T05:00:49;8.90;;;3.50;;
2940;SDS011;1480;51.456;6.670;2023-03-31T05:03:16;10.13;;;3.87;;
2940;SDS011;1480;51.456;6.670;2023-03-31T05:05:43;11.60;;;4.07;;
2940;SDS011;1480;51.456;6.670;2023-03-31T05:08:10;10.50;;;4.97;;
2940;SDS011;1480;51.456;6.670;2023-03-31T05:10:36;9.03;;;4.07;;
2940;SDS011;1480;51.456;6.670;2023-03-31T05:13:03;17.80;;;5.93;;
2940;SDS011;1480;51.456;6.670;2023-03-31T05:15:31;19.33;;;6.40;;
2940;SDS011;1480;51.456;6.670;2023-03-31T05:17:58;17.87;;;7.80;;
2940;SDS011;1480;51.456;6.670;2023-03-31T05:20:24;13.17;;;7.43;;
2940;SDS011;1480;51.456;6.670;2023-03-31T05:22:51;14.20;;;5.57;;
2940;SDS011;1480;51.456;6.670;2023-03-31T05:25:18;8.97;;;5.50;;
2940;SDS011;1480;51.456;6.670;2023-03-31T05:27:45;16.37;;;6.93;;
2940;SDS011;1480;51.456;6.670;2023-03-31T05:30:12;12.70;;;7.70;;
2940;SDS011;1480;51.456;6.670;2023-03-31T05:32:40;19.50;;;7.13;;
2940;SDS011;1480;51.456;6.670;2023-03-31T05:35:08;13.63;;;5.83;;
2940;SDS011;1480;51.456;6.670;2023-03-31T05:37:35;15.37;;;6.20;;
2940;SDS011;1480;51.456;6.670;2023-03-31T05:40:02;10.40;;;4.80;;
2940;SDS011;1480;51.456;6.670;2023-03-31T05:42:30;7.70;;;3.97;;
2940;SDS011;1480;51.456;6.670;2023-03-31T05:44:56;7.03;;;3.10;;
2940;SDS011;1480;51.456;6.670;2023-03-31T05:47:23;10.30;;;2.80;;
2940;SDS011;1480;51.456;6.670;2023-03-31T05:49:51;4.90;;;2.50;;
2940;SDS011;1480;51.456;6.670;2023-03-31T05:52:18;5.27;;;2.40;;
2940;SDS011;1480;51.456;6.670;2023-03-31T05:54:45;4.87;;;2.80;;
2940;SDS011;1480;51.456;6.670;2023-03-31T05:57:11;7.47;;;2.50;;
2940;SDS011;1480;51.456;6.670;2023-03-31T05:59:38;11.53;;;3.07;;
2940;SDS011;1480;51.456;6.670;2023-03-31T06:02:06;8.47;;;3.40;;
2940;SDS011;1480;51.456;6.670;2023-03-31T06:04:33;5.27;;;2.53;;
2940;SDS011;1480;51.456;6.670;2023-03-31T06:07:02;9.83;;;3.27;;
2940;SDS011;1480;51.456;6.670;2023-03-31T06:09:29;5.50;;;2.80;;
2940;SDS011;1480;51.456;6.670;2023-03-31T06:11:56;5.53;;;2.93;;
2940;SDS011;1480;51.456;6.670;2023-03-31T06:14:23;5.00;;;2.83;;
2940;SDS011;1480;51.456;6.670;2023-03-31T06:16:50;8.63;;;3.80;;
2940;SDS011;1480;51.456;6.670;2023-03-31T06:19:16;8.90;;;3.87;;
2940;SDS011;1480;51.456;6.670;2023-03-31T06:21:43;11.93;;;3.90;;
2940;SDS011;1480;51.456;6.670;2023-03-31T06:24:11;9.97;;;3.77;;
2940;SDS011;1480;51.456;6.670;2023-03-31T06:26:38;9.20;;;3.83;;
2940;SDS011;1480;51.456;6.670;2023-03-31T06:29:05;7.80;;;3.83;;
2940;SDS011;1480;51.456;6.670;2023-03-31T06:31:32;6.83;;;3.40;;
2940;SDS011;1480;51.456;6.670;2023-03-31T06:33:59;9.20;;;3.63;;
2940;SDS011;1480;51.456;6.670;2023-03-31T06:36:26;14.43;;;2.83;;
2940;SDS011;1480;51.456;6.670;2023-03-31T06:38:52;6.73;;;2.63;;
2940;SDS011;1480;51.456;6.670;2023-03-31T06:41:21;7.93;;;2.57;;
2940;SDS011;1480;51.456;6.670;2023-03-31T06:43:47;11.17;;;4.10;;
2940;SDS011;1480;51.456;6.670;2023-03-31T06:46:15;13.43;;;4.13;;
2940;SDS011;1480;51.456;6.670;2023-03-31T06:48:42;9.00;;;3.83;;
2940;SDS011;1480;51.456;6.670;2023-03-31T06:51:09;11.60;;;3.90;;
2940;SDS011;1480;51.456;6.670;2023-03-31T06:53:35;9.83;;;4.10;;
2940;SDS011;1480;51.456;6.670;2023-03-31T06:56:02;12.20;;;5.00;;
2940;SDS011;1480;51.456;6.670;2023-03-31T06:58:31;9.27;;;3.70;;
2940;SDS011;1480;51.456;6.670;2023-03-31T07:01:00;10.80;;;5.50;;
2940;SDS011;1480;51.456;6.670;2023-03-31T07:03:27;16.83;;;6.33;;
2940;SDS011;1480;51.456;6.670;2023-03-31T07:05:54;10.67;;;6.70;;
2940;SDS011;1480;51.456;6.670;2023-03-31T07:08:21;12.73;;;5.43;;
2940;SDS011;1480;51.456;6.670;2023-03-31T07:10:52;8.97;;;3.60;;
2940;SDS011;1480;51.456;6.670;2023-03-31T07:13:21;6.67;;;3.57;;
2940;SDS011;1480;51.456;6.670;2023-03-31T07:15:50;8.10;;;4.17;;
2940;SDS011;1480;51.456;6.670;2023-03-31T07:18:17;10.80;;;4.00;;
2940;SDS011;1480;51.456;6.670;2023-03-31T07:20:46;6.80;;;3.20;;
2940;SDS011;1480;51.456;6.670;2023-03-31T07:23:14;15.70;;;3.10;;
2940;SDS011;1480;51.456;6.670;2023-03-31T07:25:41;5.37;;;2.40;;
2940;SDS011;1480;51.456;6.670;2023-03-31T07:28:08;5.50;;;3.70;;
2940;SDS011;1480;51.456;6.670;2023-03-31T07:30:36;7.53;;;4.23;;
2940;SDS011;1480;51.456;6.670;2023-03-31T07:33:04;8.03;;;3.60;;
2940;SDS011;1480;51.456;6.670;2023-03-31T07:35:31;9.03;;;3.80;;
2940;SDS011;1480;51.456;6.670;2023-03-31T07:37:58;6.57;;;3.03;;
2940;SDS011;1480;51.456;6.670;2023-03-31T07:40:25;8.57;;;2.87;;
2940;SDS011;1480;51.456;6.670;2023-03-31T07:42:53;6.60;;;2.53;;
2940;SDS011;1480;51.456;6.670;2023-03-31T07:45:21;7.30;;;2.77;;
2940;SDS011;1480;51.456;6.670;2023-03-31T07:47:49;7.00;;;2.50;;
2940;SDS011;1480;51.456;6.670;2023-03-31T07:50:18;4.13;;;2.33;;
2940;SDS011;1480;51.456;6.670;2023-03-31T07:52:49;5.97;;;2.57;;
2940;SDS011;1480;51.456;6.670;2023-03-31T07:55:16;6.60;;;2.40;;
2940;SDS011;1480;51.456;6.670;2023-03-31T07:57:44;12.60;;;3.40;;
2940;SDS011;1480;51.456;6.670;2023-03-31T08:00:12;5.27;;;2.60;;
2940;SDS011;1480;51.456;6.670;2023-03-31T08:02:40;9.10;;;3.10;;
2940;SDS011;1480;51.456;6.670;2023-03-31T08:05:08;7.47;;;3.50;;
2940;SDS011;1480;51.456;6.670;2023-03-31T08:07:37;16.80;;;4.63;;
2940;SDS011;1480;51.456;6.670;2023-03-31T08:10:06;7.40;;;3.20;;
2940;SDS011;1480;51.456;6.670;2023-03-31T08:12:34;9.67;;;3.97;;
2940;SDS011;1480;51.456;6.670;2023-03-31T08:15:01;6.87;;;3.53;;
2940;SDS011;1480;51.456;6.670;2023-03-31T08:17:28;9.73;;;3.53;;
2940;SDS011;1480;51.456;6.670;2023-03-31T08:19:54;9.50;;;3.37;;
2940;SDS011;1480;51.456;6.670;2023-03-31T08:22:21;9.40;;;3.40;;
2940;SDS011;1480;51.456;6.670;2023-03-31T08:24:49;7.53;;;2.90;;
2940;SDS011;1480;51.456;6.670;2023-03-31T08:27:16;11.37;;;3.13;;
2940;SDS011;1480;51.456;6.670;2023-03-31T08:29:43;9.10;;;2.60;;
2940;SDS011;1480;51.456;6.670;2023-03-31T08:32:09;5.90;;;2.80;;
2940;SDS011;1480;51.456;6.670;2023-03-31T08:34:36;6.20;;;2.43;;
2940;SDS011;1480;51.456;6.670;2023-03-31T08:37:06;10.13;;;1.93;;
2940;SDS011;1480;51.456;6.670;2023-03-31T08:39:33;5.23;;;2.83;;
2940;SDS011;1480;51.456;6.670;2023-03-31T08:42:03;10.00;;;2.27;;
2940;SDS011;1480;51.456;6.670;2023-03-31T08:44:33;10.27;;;2.60;;
2940;SDS011;1480;51.456;6.670;2023-03-31T08:47:03;7.20;;;3.07;;
2940;SDS011;1480;51.456;6.670;2023-03-31T08:49:32;7.73;;;3.40;;
2940;SDS011;1480;51.456;6.670;2023-03-31T08:52:04;11.23;;;2.80;;
2940;SDS011;1480;51.456;6.670;2023-03-31T08:54:35;10.33;;;3.00;;
2940;SDS011;1480;51.456;6.670;2023-03-31T08:57:09;9.97;;;3.77;;
2940;SDS011;1480;51.456;6.670;2023-03-31T08:59:38;6.47;;;2.07;;
2940;SDS011;1480;51.456;6.670;2023-03-31T09:02:09;16.63;;;4.00;;
2940;SDS011;1480;51.456;6.670;2023-03-31T09:04:49;8.40;;;2.97;;
2940;SDS011;1480;51.456;6.670;2023-03-31T09:07:33;9.70;;;2.73;;
2940;SDS011;1480;51.456;6.670;2023-03-31T09:10:06;10.00;;;3.30;;
2940;SDS011;1480;51.456;6.670;2023-03-31T09:12:45;11.00;;;3.40;;
2940;SDS011;1480;51.456;6.670;2023-03-31T09:15:16;10.47;;;3.93;;
2940;SDS011;1480;51.456;6.670;2023-03-31T09:17:50;13.83;;;4.13;;
2940;SDS011;1480;51.456;6.670;2023-03-31T09:20:19;18.20;;;3.90;;
2940;SDS011;1480;51.456;6.670;2023-03-31T09:22:49;12.97;;;3.40;;
2940;SDS011;1480;51.456;6.670;2023-03-31T09:25:18;19.53;;;4.40;;
2940;SDS011;1480;51.456;6.670;2023-03-31T09:27:47;13.90;;;4.00;;
2940;SDS011;1480;51.456;6.670;2023-03-31T09:30:16;9.30;;;3.10;;
2940;SDS011;1480;51.456;6.670;2023-03-31T09:32:47;11.17;;;3.50;;
2940;SDS011;1480;51.456;6.670;2023-03-31T09:35:17;7.73;;;2.80;;
2940;SDS011;1480;51.456;6.670;2023-03-31T09:37:47;11.67;;;3.37;;
2940;SDS011;1480;51.456;6.670;2023-03-31T09:40:15;11.43;;;3.60;;
2940;SDS011;1480;51.456;6.670;2023-03-31T09:42:42;12.00;;;3.43;;
2940;SDS011;1480;51.456;6.670;2023-03-31T09:45:14;16.97;;;3.40;;
2940;SDS011;1480;51.456;6.670;2023-03-31T09:47:41;12.07;;;3.67;;
2940;SDS011;1480;51.456;6.670;2023-03-31T09:50:09;14.13;;;4.17;;
2940;SDS011;1480;51.456;6.670;2023-03-31T09:52:38;8.53;;;3.10;;
2940;SDS011;1480;51.456;6.670;2023-03-31T09:55:12;17.07;;;3.70;;
2940;SDS011;1480;51.456;6.670;2023-03-31T09:57:43;10.23;;;3.30;;
2940;SDS011;1480;51.456;6.670;2023-03-31T10:00:15;8.60;;;2.77;;
2940;SDS011;1480;51.456;6.670;2023-03-31T10:02:44;9.60;;;2.60;;
2940;SDS011;1480;51.456;6.670;2023-03-31T10:05:18;17.10;;;3.20;;
2940;SDS011;1480;51.456;6.670;2023-03-31T10:07:48;7.97;;;2.77;;
2940;SDS011;1480;51.456;6.670;2023-03-31T10:10:19;10.87;;;3.10;;
2940;SDS011;1480;51.456;6.670;2023-03-31T10:12:52;15.47;;;4.17;;
2940;SDS011;1480;51.456;6.670;2023-03-31T10:15:22;8.07;;;3.40;;
2940;SDS011;1480;51.456;6.670;2023-03-31T10:17:52;12.37;;;3.70;;
2940;SDS011;1480;51.456;6.670;2023-03-31T10:20:20;11.53;;;3.60;;
2940;SDS011;1480;51.456;6.670;2023-03-31T10:23:01;15.03;;;3.87;;
2940;SDS011;1480;51.456;6.670;2023-03-31T10:25:28;10.03;;;3.40;;
2940;SDS011;1480;51.456;6.670;2023-03-31T10:27:55;11.83;;;3.37;;
2940;SDS011;1480;51.456;6.670;2023-03-31T10:30:25;18.77;;;3.60;;
2940;SDS011;1480;51.456;6.670;2023-03-31T10:32:56;9.83;;;2.80;;
2940;SDS011;1480;51.456;6.670;2023-03-31T10:35:25;13.93;;;3.83;;
2940;SDS011;1480;51.456;6.670;2023-03-31T10:37:53;9.37;;;3.40;;
2940;SDS011;1480;51.456;6.670;2023-03-31T10:40:22;10.20;;;3.07;;
2940;SDS011;1480;51.456;6.670;2023-03-31T10:42:57;24.23;;;4.10;;
2940;SDS011;1480;51.456;6.670;2023-03-31T10:45:27;10.40;;;3.50;;
2940;SDS011;1480;51.456;6.670;2023-03-31T10:47:56;10.30;;;2.80;;
2940;SDS011;1480;51.456;6.670;2023-03-31T10:50:27;6.67;;;2.50;;
2940;SDS011;1480;51.456;6.670;2023-03-31T10:53:00;8.80;;;3.57;;
2940;SDS011;1480;51.456;6.670;2023-03-31T10:55:30;7.93;;;2.30;;
2940;SDS011;1480;51.456;6.670;2023-03-31T10:58:01;9.70;;;2.60;;
2940;SDS011;1480;51.456;6.670;2023-03-31T11:00:35;10.73;;;2.93;;
2940;SDS011;1480;51.456;6.670;2023-03-31T11:03:19;14.00;;;2.80;;
2940;SDS011;1480;51.456;6.670;2023-03-31T11:05:55;6.33;;;1.87;;
2940;SDS011;1480;51.456;6.670;2023-03-31T11:08:30;6.37;;;1.90;;
2940;SDS011;1480;51.456;6.670;2023-03-31T11:11:06;5.93;;;1.70;;
2940;SDS011;1480;51.456;6.670;2023-03-31T11:13:47;6.50;;;1.90;;
2940;SDS011;1480;51.456;6.670;2023-03-31T11:16:20;5.57;;;1.57;;
2940;SDS011;1480;51.456;6.670;2023-03-31T11:18:56;4.90;;;2.10;;
2940;SDS011;1480;51.456;6.670;2023-03-31T11:21:31;4.83;;;1.50;;
2940;SDS011;1480;51.456;6.670;2023-03-31T11:24:07;5.83;;;1.30;;
2940;SDS011;1480;51.456;6.670;2023-03-31T11:26:44;9.23;;;2.23;;
2940;SDS011;1480;51.456;6.670;2023-03-31T11:29:16;3.73;;;1.90;;
2940;SDS011;1480;51.456;6.670;2023-03-31T11:31:54;3.83;;;1.30;;
2940;SDS011;1480;51.456;6.670;2023-03-31T11:34:33;8.73;;;2.33;;
2940;SDS011;1480;51.456;6.670;2023-03-31T11:37:26;6.10;;;1.77;;
2940;SDS011;1480;51.456;6.670;2023-03-31T11:42:58;6.70;;;1.83;;
2940;SDS011;1480;51.456;6.670;2023-03-31T11:45:28;7.67;;;2.40;;
2940;SDS011;1480;51.456;6.670;2023-03-31T11:48:00;12.80;;;2.20;;
2940;SDS011;1480;51.456;6.670;2023-03-31T11:50:31;7.60;;;2.00;;
2940;SDS011;1480;51.456;6.670;2023-03-31T11:53:04;4.40;;;1.67;;
2940;SDS011;1480;51.456;6.670;2023-03-31T11:55:31;6.40;;;1.73;;
2940;SDS011;1480;51.456;6.670;2023-03-31T11:58:02;9.33;;;2.20;;
2940;SDS011;1480;51.456;6.670;2023-03-31T12:00:31;7.97;;;1.90;;
2940;SDS011;1480;51.456;6.670;2023-03-31T12:03:03;4.43;;;2.10;;
2940;SDS011;1480;51.456;6.670;2023-03-31T12:05:35;6.40;;;2.00;;
2940;SDS011;1480;51.456;6.670;2023-03-31T12:08:04;8.63;;;2.00;;
2940;SDS011;1480;51.456;6.670;2023-03-31T12:10:34;9.07;;;2.43;;
2940;SDS011;1480;51.456;6.670;2023-03-31T12:13:04;12.13;;;2.33;;
2940;SDS011;1480;51.456;6.670;2023-03-31T12:15:36;5.70;;;2.27;;
2940;SDS011;1480;51.456;6.670;2023-03-31T12:18:11;5.63;;;2.03;;
2940;SDS011;1480;51.456;6.670;2023-03-31T12:20:40;6.73;;;2.30;;
2940;SDS011;1480;51.456;6.670;2023-03-31T12:23:10;11.50;;;3.03;;
2940;SDS011;1480;51.456;6.670;2023-03-31T12:25:41;9.73;;;2.13;;
2940;SDS011;1480;51.456;6.670;2023-03-31T12:28:12;10.13;;;2.93;;
2940;SDS011;1480;51.456;6.670;2023-03-31T12:30:40;5.93;;;2.00;;
2940;SDS011;1480;51.456;6.670;2023-03-31T12:33:12;8.83;;;2.20;;
2940;SDS011;1480;51.456;6.670;2023-03-31T12:35:45;9.37;;;2.53;;
2940;SDS011;1480;51.456;6.670;2023-03-31T12:38:33;12.07;;;3.57;;
2940;SDS011;1480;51.456;6.670;2023-03-31T12:41:07;9.40;;;2.17;;
2940;SDS011;1480;51.456;6.670;2023-03-31T12:43:55;8.30;;;2.50;;
2940;SDS011;1480;51.456;6.670;2023-03-31T12:46:32;7.50;;;2.57;;
2940;SDS011;1480;51.456;6.670;2023-03-31T12:49:18;9.77;;;1.90;;
2940;SDS011;1480;51.456;6.670;2023-03-31T12:51:53;6.90;;;1.80;;
2940;SDS011;1480;51.456;6.670;2023-03-31T12:54:30;7.30;;;2.43;;
2940;SDS011;1480;51.456;6.670;2023-03-31T12:57:03;9.83;;;2.50;;
2940;SDS011;1480;51.456;6.670;2023-03-31T12:59:41;11.80;;;2.90;;
2940;SDS011;1480;51.456;6.670;2023-03-31T13:02:22;8.20;;;2.80;;
2940;SDS011;1480;51.456;6.670;2023-03-31T13:04:51;11.77;;;3.57;;
2940;SDS011;1480;51.456;6.670;2023-03-31T13:07:33;9.30;;;2.17;;
2940;SDS011;1480;51.456;6.670;2023-03-31T13:13:04;8.33;;;4.00;;
2940;SDS011;1480;51.456;6.670;2023-03-31T13:15:32;11.00;;;2.30;;
2940;SDS011;1480;51.456;6.670;2023-03-31T13:17:59;4.43;;;2.10;;
2940;SDS011;1480;51.456;6.670;2023-03-31T13:20:32;10.47;;;2.03;;
2940;SDS011;1480;51.456;6.670;2023-03-31T13:23:13;8.83;;;1.70;;
2940;SDS011;1480;51.456;6.670;2023-03-31T13:25:47;5.93;;;2.00;;
2940;SDS011;1480;51.456;6.670;2023-03-31T13:30:59;5.37;;;1.60;;
2940;SDS011;1480;51.456;6.670;2023-03-31T13:33:31;6.93;;;1.70;;
2940;SDS011;1480;51.456;6.670;2023-03-31T13:36:12;5.73;;;1.77;;
2940;SDS011;1480;51.456;6.670;2023-03-31T13:39:06;8.20;;;1.87;;
2940;SDS011;1480;51.456;6.670;2023-03-31T13:41:44;4.80;;;1.70;;
2940;SDS011;1480;51.456;6.670;2023-03-31T13:50:14;8.10;;;2.23;;
2940;SDS011;1480;51.456;6.670;2023-03-31T13:52:59;5.27;;;1.83;;
2940;SDS011;1480;51.456;6.670;2023-03-31T13:55:42;4.07;;;1.33;;
2940;SDS011;1480;51.456;6.670;2023-03-31T13:58:29;4.37;;;1.80;;
2940;SDS011;1480;51.456;6.670;2023-03-31T14:01:14;5.10;;;1.60;;
2940;SDS011;1480;51.456;6.670;2023-03-31T14:03:50;8.13;;;2.30;;
2940;SDS011;1480;51.456;6.670;2023-03-31T14:06:25;5.73;;;2.03;;
2940;SDS011;1480;51.456;6.670;2023-03-31T14:08:55;7.37;;;2.33;;
2940;SDS011;1480;51.456;6.670;2023-03-31T14:11:24;5.87;;;2.00;;
2940;SDS011;1480;51.456;6.670;2023-03-31T14:13:59;7.13;;;1.90;;
2940;SDS011;1480;51.456;6.670;2023-03-31T14:16:31;7.37;;;2.07;;
2940;SDS011;1480;51.456;6.670;2023-03-31T14:19:12;3.70;;;1.60;;
2940;SDS011;1480;51.456;6.670;2023-03-31T14:21:49;15.53;;;2.13;;
2940;SDS011;1480;51.456;6.670;2023-03-31T14:24:24;5.10;;;1.97;;
2940;SDS011;1480;51.456;6.670;2023-03-31T14:26:57;6.43;;;1.80;;
2940;SDS011;1480;51.456;6.670;2023-03-31T14:29:33;4.60;;;2.23;;
2940;SDS011;1480;51.456;6.670;2023-03-31T14:32:06;9.53;;;1.97;;
2940;SDS011;1480;51.456;6.670;2023-03-31T14:37:28;4.43;;;1.90;;
2940;SDS011;1480;51.456;6.670;2023-03-31T14:39:56;6.00;;;2.03;;
2940;SDS011;1480;51.456;6.670;2023-03-31T14:42:24;9.77;;;2.17;;
2940;SDS011;1480;51.456;6.670;2023-03-31T14:44:54;7.13;;;1.80;;
2940;SDS011;1480;51.456;6.670;2023-03-31T14:47:22;7.73;;;2.13;;
2940;SDS011;1480;51.456;6.670;2023-03-31T14:49:57;4.70;;;1.90;;
2940;SDS011;1480;51.456;6.670;2023-03-31T14:52:27;4.23;;;1.93;;
2940;SDS011;1480;51.456;6.670;2023-03-31T14:54:57;8.40;;;1.90;;
2940;SDS011;1480;51.456;6.670;2023-03-31T14:57:26;9.20;;;2.30;;
2940;SDS011;1480;51.456;6.670;2023-03-31T14:59:55;7.63;;;2.30;;
2940;SDS011;1480;51.456;6.670;2023-03-31T15:02:24;4.93;;;1.90;;
2940;SDS011;1480;51.456;6.670;2023-03-31T15:04:55;7.40;;;2.43;;
2940;SDS011;1480;51.456;6.670;2023-03-31T15:07:22;5.43;;;2.00;;
2940;SDS011;1480;51.456;6.670;2023-03-31T15:09:49;7.13;;;2.17;;
2940;SDS011;1480;51.456;6.670;2023-03-31T15:12:21;5.67;;;1.93;;
2940;SDS011;1480;51.456;6.670;2023-03-31T15:14:49;6.80;;;1.90;;
2940;SDS011;1480;51.456;6.670;2023-03-31T15:17:17;6.83;;;2.10;;
2940;SDS011;1480;51.456;6.670;2023-03-31T15:19:45;6.43;;;1.60;;
2940;SDS011;1480;51.456;6.670;2023-03-31T15:22:19;5.53;;;1.57;;
2940;SDS011;1480;51.456;6.670;2023-03-31T15:24:48;4.83;;;1.50;;
2940;SDS011;1480;51.456;6.670;2023-03-31T15:27:15;6.13;;;1.60;;
2940;SDS011;1480;51.456;6.670;2023-03-31T15:29:47;7.83;;;1.60;;
2940;SDS011;1480;51.456;6.670;2023-03-31T15:32:16;5.53;;;2.43;;
2940;SDS011;1480;51.456;6.670;2023-03-31T15:34:48;3.93;;;1.97;;
2940;SDS011;1480;51.456;6.670;2023-03-31T15:37:16;4.47;;;2.10;;
2940;SDS011;1480;51.456;6.670;2023-03-31T15:39:46;5.63;;;1.27;;
2940;SDS011;1480;51.456;6.670;2023-03-31T15:42:13;4.27;;;1.57;;
2940;SDS011;1480;51.456;6.670;2023-03-31T15:44:43;6.90;;;1.30;;
2940;SDS011;1480;51.456;6.670;2023-03-31T15:47:18;3.97;;;1.77;;
2940;SDS011;1480;51.456;6.670;2023-03-31T15:49:49;4.87;;;1.40;;
2940;SDS011;1480;51.456;6.670;2023-03-31T15:52:21;4.57;;;1.50;;
2940;SDS011;1480;51.456;6.670;2023-03-31T15:54:52;5.20;;;1.53;;
2940;SDS011;1480;51.456;6.670;2023-03-31T15:57:19;4.13;;;1.73;;